createdAt,value
2017-08-04T00:00:48.933Z,941.5
2017-08-04T00:01:57.026Z,941.5
2017-08-04T00:03:05.267Z,941.5
2017-08-04T00:04:13.215Z,941.5
2017-08-04T00:05:21.352Z,941.4
2017-08-04T00:06:29.383Z,941.5
2017-08-04T00:07:37.625Z,941.5
2017-08-04T00:08:45.564Z,941.5
2017-08-04T00:09:53.655Z,941.6
2017-08-04T00:11:01.864Z,941.6
2017-08-04T00:12:09.836Z,941.6
2017-08-04T00:13:17.925Z,941.6
2017-08-04T00:14:26.072Z,941.6
2017-08-04T00:15:34.103Z,941.6
2017-08-04T00:16:42.446Z,941.7
2017-08-04T00:17:50.342Z,941.7
2017-08-04T00:18:58.371Z,941.7
2017-08-04T00:20:06.465Z,941.6
2017-08-04T00:21:14.746Z,941.7
2017-08-04T00:22:22.765Z,941.6
2017-08-04T00:23:30.737Z,941.6
2017-08-04T00:24:38.824Z,941.6
2017-08-04T00:25:46.994Z,941.5
2017-08-04T00:26:55.006Z,941.6
2017-08-04T00:28:03.152Z,941.6
2017-08-04T00:29:11.185Z,941.5
2017-08-04T00:30:19.395Z,941.5
2017-08-04T00:31:27.366Z,941.5
2017-08-04T00:32:35.456Z,941.6
2017-08-04T00:33:43.665Z,941.6
2017-08-04T00:34:51.635Z,941.6
2017-08-04T00:35:59.724Z,941.6
2017-08-04T00:37:07.815Z,941.6
2017-08-04T00:38:15.905Z,941.6
2017-08-04T00:39:24.049Z,941.5
2017-08-04T00:40:32.086Z,941.5
2017-08-04T00:41:40.174Z,941.5
2017-08-04T00:42:48.267Z,941.5
2017-08-04T00:43:56.357Z,941.5
2017-08-04T00:45:04.567Z,941.5
2017-08-04T00:46:12.591Z,941.5
2017-08-04T00:47:20.625Z,941.5
2017-08-04T00:48:28.726Z,941.5
2017-08-04T00:49:36.930Z,941.5
2017-08-04T00:50:44.963Z,941.6
2017-08-04T00:51:52.996Z,941.6
2017-08-04T00:53:01.085Z,941.6
2017-08-04T00:54:09.175Z,941.7
2017-08-04T00:55:17.280Z,941.7
2017-08-04T00:56:25.425Z,941.6
2017-08-04T00:57:33.470Z,941.6
2017-08-04T00:58:41.595Z,941.6
2017-08-04T00:59:49.648Z,941.5
2017-08-04T01:00:57.737Z,941.6
2017-08-04T01:02:05.925Z,941.5
2017-08-04T01:03:13.921Z,941.5
2017-08-04T01:04:22.010Z,941.5
2017-08-04T01:05:30.106Z,941.4
2017-08-04T01:06:38.295Z,941.4
2017-08-04T01:07:46.363Z,941.4
2017-08-04T01:08:54.372Z,941.4
2017-08-04T01:10:02.460Z,941.4
2017-08-04T01:11:10.741Z,941.5
2017-08-04T01:12:18.791Z,941.5
2017-08-04T01:13:26.854Z,941.6
2017-08-04T01:14:34.823Z,941.8
2017-08-04T01:15:42.911Z,942.0
2017-08-04T01:16:51.005Z,942.0
2017-08-04T01:17:59.156Z,941.7
2017-08-04T01:19:07.236Z,941.6
2017-08-04T01:20:15.270Z,941.5
2017-08-04T01:21:23.411Z,941.5
2017-08-04T01:22:31.451Z,941.6
2017-08-04T01:23:39.541Z,941.7
2017-08-04T01:24:47.752Z,941.7
2017-08-04T01:25:55.729Z,941.7
2017-08-04T01:27:03.812Z,941.8
2017-08-04T01:28:11.902Z,941.8
2017-08-04T01:29:19.994Z,941.8
2017-08-04T01:30:28.245Z,941.8
2017-08-04T01:31:36.173Z,942.0
2017-08-04T01:32:44.263Z,941.8
2017-08-04T01:33:52.410Z,941.8
2017-08-04T01:35:00.539Z,941.9
2017-08-04T01:36:08.653Z,941.8
2017-08-04T01:37:16.623Z,941.8
2017-08-04T01:38:24.713Z,941.9
2017-08-04T01:39:32.806Z,941.9
2017-08-04T01:40:40.893Z,941.8
2017-08-04T01:41:49.104Z,941.9
2017-08-04T01:42:57.074Z,941.8
2017-08-04T01:44:05.164Z,941.9
2017-08-04T01:45:13.257Z,941.9
2017-08-04T01:46:21.345Z,942.0
2017-08-04T01:47:29.490Z,941.9
2017-08-04T01:48:37.524Z,942.0
2017-08-04T01:49:45.733Z,941.9
2017-08-04T01:50:53.703Z,941.9
2017-08-04T01:52:01.794Z,941.8
2017-08-04T01:53:09.999Z,941.8
2017-08-04T01:54:17.976Z,941.8
2017-08-04T01:55:26.065Z,941.7
2017-08-04T01:56:34.154Z,941.8
2017-08-04T01:57:42.439Z,941.8
2017-08-04T01:58:50.453Z,941.8
2017-08-04T01:59:58.423Z,941.8
2017-08-04T02:01:06.521Z,941.8
2017-08-04T02:02:14.604Z,941.8
2017-08-04T02:03:22.694Z,941.8
2017-08-04T02:04:30.839Z,941.7
2017-08-04T02:05:39.000Z,941.7
2017-08-04T02:06:46.964Z,941.7
2017-08-04T02:07:55.054Z,941.7
2017-08-04T02:09:03.143Z,941.6
2017-08-04T02:10:11.354Z,941.6
2017-08-04T02:11:19.323Z,941.6
2017-08-04T02:12:27.470Z,941.6
2017-08-04T02:13:35.503Z,941.6
2017-08-04T02:14:43.594Z,941.6
2017-08-04T02:15:51.932Z,941.6
2017-08-04T02:16:59.815Z,941.7
2017-08-04T02:18:07.864Z,941.6
2017-08-04T02:19:15.950Z,941.6
2017-08-04T02:20:24.049Z,941.6
2017-08-04T02:21:32.261Z,941.6
2017-08-04T02:22:40.232Z,941.6
2017-08-04T02:23:48.321Z,941.6
2017-08-04T02:24:56.596Z,941.6
2017-08-04T02:26:04.501Z,941.5
2017-08-04T02:27:12.710Z,941.5
2017-08-04T02:28:20.681Z,941.5
2017-08-04T02:29:28.950Z,941.5
2017-08-04T02:30:36.860Z,941.6
2017-08-04T02:31:44.951Z,941.5
2017-08-04T02:32:53.171Z,941.5
2017-08-04T02:34:01.139Z,941.5
2017-08-04T02:35:09.230Z,941.5
2017-08-04T02:36:17.319Z,941.5
2017-08-04T02:37:25.465Z,941.5
2017-08-04T02:38:33.739Z,941.5
2017-08-04T02:39:41.610Z,941.5
2017-08-04T02:40:49.686Z,941.5
2017-08-04T02:41:57.771Z,941.6
2017-08-04T02:43:05.863Z,941.5
2017-08-04T02:44:14.255Z,941.6
2017-08-04T02:45:22.053Z,941.6
2017-08-04T02:46:30.143Z,941.6
2017-08-04T02:47:38.231Z,941.6
2017-08-04T02:48:46.415Z,941.5
2017-08-04T02:49:54.478Z,941.5
2017-08-04T02:51:02.512Z,941.5
2017-08-04T02:52:10.600Z,941.5
2017-08-04T02:53:18.967Z,941.5
2017-08-04T02:54:26.781Z,941.5
2017-08-04T02:55:34.992Z,941.5
2017-08-04T02:56:42.962Z,941.4
2017-08-04T02:57:51.052Z,941.5
2017-08-04T02:58:59.142Z,941.4
2017-08-04T03:00:07.234Z,941.4
2017-08-04T03:01:15.441Z,941.4
2017-08-04T03:02:23.452Z,941.4
2017-08-04T03:03:31.500Z,941.4
2017-08-04T03:04:39.593Z,941.4
2017-08-04T03:05:47.681Z,941.4
2017-08-04T03:06:55.952Z,941.4
2017-08-04T03:08:03.862Z,941.3
2017-08-04T03:09:12.074Z,941.4
2017-08-04T03:10:20.041Z,941.4
2017-08-04T03:11:28.162Z,941.4
2017-08-04T03:12:36.285Z,941.4
2017-08-04T03:13:44.311Z,941.4
2017-08-04T03:14:52.399Z,941.4
2017-08-04T03:16:00.519Z,941.4
2017-08-04T03:17:08.582Z,941.4
2017-08-04T03:18:16.732Z,941.4
2017-08-04T03:19:24.762Z,941.4
2017-08-04T03:20:32.904Z,941.4
2017-08-04T03:21:40.942Z,941.4
2017-08-04T03:22:49.029Z,941.5
2017-08-04T03:23:57.239Z,941.4
2017-08-04T03:25:05.269Z,941.4
2017-08-04T03:26:13.301Z,941.4
2017-08-04T03:27:21.391Z,941.4
2017-08-04T03:28:29.481Z,941.4
2017-08-04T03:29:37.627Z,941.4
2017-08-04T03:30:45.660Z,941.5
2017-08-04T03:31:53.749Z,941.5
2017-08-04T03:33:01.839Z,941.5
2017-08-04T03:34:09.932Z,941.4
2017-08-04T03:35:18.140Z,941.4
2017-08-04T03:36:26.111Z,941.5
2017-08-04T03:37:34.199Z,941.5
2017-08-04T03:38:42.289Z,941.5
2017-08-04T03:39:50.381Z,941.4
2017-08-04T03:40:58.607Z,941.5
2017-08-04T03:42:06.570Z,941.5
2017-08-04T03:43:14.742Z,941.4
2017-08-04T03:44:22.763Z,941.5
2017-08-04T03:45:30.850Z,941.5
2017-08-04T03:46:38.995Z,941.5
2017-08-04T03:47:47.028Z,941.5
2017-08-04T03:48:55.120Z,941.5
2017-08-04T03:50:03.209Z,941.5
2017-08-04T03:51:11.302Z,941.6
2017-08-04T03:52:19.448Z,941.6
2017-08-04T03:53:27.480Z,941.6
2017-08-04T03:54:35.570Z,941.6
2017-08-04T03:55:43.660Z,941.6
2017-08-04T03:56:51.871Z,941.6
2017-08-04T03:57:59.894Z,941.6
2017-08-04T03:59:07.929Z,941.6
2017-08-04T04:00:16.020Z,941.7
2017-08-04T04:01:24.132Z,941.6
2017-08-04T04:02:32.200Z,941.7
2017-08-04T04:03:40.347Z,941.8
2017-08-04T04:04:48.380Z,941.8
2017-08-04T04:05:56.470Z,941.7
2017-08-04T04:07:04.558Z,941.8
2017-08-04T04:08:12.648Z,941.8
2017-08-04T04:09:20.862Z,941.8
2017-08-04T04:10:28.832Z,941.8
2017-08-04T04:11:36.919Z,941.9
2017-08-04T04:12:45.128Z,941.8
2017-08-04T04:13:53.106Z,941.8
2017-08-04T04:15:01.278Z,941.9
2017-08-04T04:16:09.459Z,941.8
2017-08-04T04:17:17.374Z,941.8
2017-08-04T04:18:25.467Z,941.9
2017-08-04T04:19:33.558Z,941.9
2017-08-04T04:20:41.702Z,941.9
2017-08-04T04:21:49.739Z,941.9
2017-08-04T04:22:57.825Z,941.9
2017-08-04T04:24:05.915Z,941.9
2017-08-04T04:25:14.006Z,941.8
2017-08-04T04:26:22.217Z,941.9
2017-08-04T04:27:30.195Z,941.9
2017-08-04T04:28:38.343Z,941.9
2017-08-04T04:29:46.422Z,941.9
2017-08-04T04:30:54.468Z,941.9
2017-08-04T04:32:02.619Z,941.9
2017-08-04T04:33:10.650Z,942.0
2017-08-04T04:34:18.875Z,941.9
2017-08-04T04:35:26.829Z,941.9
2017-08-04T04:36:34.919Z,942.0
2017-08-04T04:37:43.133Z,942.0
2017-08-04T04:38:51.254Z,942.0
2017-08-04T04:39:59.189Z,942.0
2017-08-04T04:41:07.312Z,942.0
2017-08-04T04:42:15.380Z,942.0
2017-08-04T04:43:23.667Z,942.0
2017-08-04T04:44:32.443Z,942.0
2017-08-04T04:45:39.758Z,942.0
2017-08-04T04:46:47.782Z,942.0
2017-08-04T04:47:55.857Z,941.9
2017-08-04T04:49:04.052Z,941.9
2017-08-04T04:50:11.996Z,942.0
2017-08-04T04:51:20.086Z,941.9
2017-08-04T04:52:28.180Z,942.0
2017-08-04T04:53:36.266Z,942.0
2017-08-04T04:54:44.474Z,941.9
2017-08-04T04:55:52.444Z,942.0
2017-08-04T04:57:01.071Z,942.0
2017-08-04T04:58:09.191Z,942.0
2017-08-04T04:59:17.137Z,941.9
2017-08-04T05:00:24.924Z,941.9
2017-08-04T05:01:32.898Z,941.9
2017-08-04T05:02:40.982Z,941.9
2017-08-04T05:03:49.251Z,941.9
2017-08-04T05:04:57.161Z,941.9
2017-08-04T05:06:05.401Z,942.0
2017-08-04T05:07:13.483Z,942.0
2017-08-04T05:08:21.714Z,942.0
2017-08-04T05:09:29.513Z,942.0
2017-08-04T05:10:37.701Z,942.0
2017-08-04T05:11:45.834Z,942.0
2017-08-04T05:12:53.806Z,942.0
2017-08-04T05:14:01.891Z,941.9
2017-08-04T05:15:10.142Z,942.0
2017-08-04T05:16:18.130Z,942.0
2017-08-04T05:17:26.284Z,942.0
2017-08-04T05:18:34.253Z,942.0
2017-08-04T05:19:42.419Z,942.0
2017-08-04T05:20:50.450Z,942.0
2017-08-04T05:21:58.521Z,942.0
2017-08-04T05:23:06.668Z,942.1
2017-08-04T05:24:14.703Z,942.0
2017-08-04T05:25:22.792Z,942.0
2017-08-04T05:26:30.882Z,942.1
2017-08-04T05:27:38.972Z,942.0
2017-08-04T05:28:47.184Z,942.0
2017-08-04T05:29:55.158Z,942.1
2017-08-04T05:31:03.256Z,942.1
2017-08-04T05:32:11.399Z,942.1
2017-08-04T05:33:19.433Z,942.1
2017-08-04T05:34:27.708Z,942.1
2017-08-04T05:35:35.609Z,942.1
2017-08-04T05:36:43.700Z,942.1
2017-08-04T05:37:51.789Z,942.0
2017-08-04T05:38:59.935Z,942.1
2017-08-04T05:40:08.025Z,942.1
2017-08-04T05:41:16.057Z,942.1
2017-08-04T05:42:24.149Z,942.1
2017-08-04T05:43:32.239Z,942.1
2017-08-04T05:44:40.329Z,942.0
2017-08-04T05:45:48.538Z,942.0
2017-08-04T05:46:56.515Z,942.0
2017-08-04T05:48:04.659Z,942.0
2017-08-04T05:49:12.693Z,942.1
2017-08-04T05:50:20.782Z,942.1
2017-08-04T05:51:28.992Z,942.1
2017-08-04T05:52:36.970Z,942.1
2017-08-04T05:53:45.050Z,942.1
2017-08-04T05:54:53.141Z,942.1
2017-08-04T05:56:01.240Z,942.1
2017-08-04T05:57:09.376Z,942.1
2017-08-04T05:58:17.422Z,942.1
2017-08-04T05:59:25.512Z,942.1
2017-08-04T06:00:33.600Z,942.1
2017-08-04T06:01:41.795Z,942.1
2017-08-04T06:02:49.902Z,942.2
2017-08-04T06:03:57.926Z,942.2
2017-08-04T06:05:05.966Z,942.2
2017-08-04T06:06:14.051Z,942.3
2017-08-04T06:07:22.144Z,942.3
2017-08-04T06:08:30.351Z,942.3
2017-08-04T06:09:38.320Z,942.3
2017-08-04T06:10:46.438Z,942.3
2017-08-04T06:11:54.498Z,942.3
2017-08-04T06:13:02.587Z,942.3
2017-08-04T06:14:10.800Z,942.3
2017-08-04T06:15:18.909Z,942.3
2017-08-04T06:16:26.857Z,942.3
2017-08-04T06:17:34.957Z,942.3
2017-08-04T06:18:43.038Z,942.3
2017-08-04T06:19:51.253Z,942.3
2017-08-04T06:20:59.223Z,942.3
2017-08-04T06:22:07.315Z,942.3
2017-08-04T06:23:15.409Z,942.3
2017-08-04T06:24:23.494Z,942.3
2017-08-04T06:25:31.640Z,942.3
2017-08-04T06:26:39.677Z,942.3
2017-08-04T06:27:47.764Z,942.3
2017-08-04T06:28:55.932Z,942.3
2017-08-04T06:30:03.939Z,942.4
2017-08-04T06:31:12.153Z,942.3
2017-08-04T06:32:20.123Z,942.3
2017-08-04T06:33:28.396Z,942.3
2017-08-04T06:34:36.313Z,942.3
2017-08-04T06:35:44.466Z,942.3
2017-08-04T06:36:52.611Z,942.3
2017-08-04T06:38:00.776Z,942.3
2017-08-04T06:39:08.670Z,942.3
2017-08-04T06:40:16.895Z,942.3
2017-08-04T06:41:24.849Z,942.3
2017-08-04T06:42:33.179Z,942.4
2017-08-04T06:43:41.031Z,942.3
2017-08-04T06:44:49.123Z,942.3
2017-08-04T06:45:57.210Z,942.3
2017-08-04T06:47:05.298Z,942.3
2017-08-04T06:48:13.509Z,942.3
2017-08-04T06:49:21.476Z,942.3
2017-08-04T06:50:29.567Z,942.3
2017-08-04T06:51:37.715Z,942.3
2017-08-04T06:52:45.765Z,942.2
2017-08-04T06:53:53.900Z,942.3
2017-08-04T06:55:01.929Z,942.2
2017-08-04T06:56:10.014Z,942.2
2017-08-04T06:57:18.105Z,942.2
2017-08-04T06:58:26.194Z,942.2
2017-08-04T06:59:34.405Z,942.2
2017-08-04T07:00:42.374Z,942.3
2017-08-04T07:01:50.463Z,942.3
2017-08-04T07:02:58.553Z,942.2
2017-08-04T07:04:06.643Z,942.3
2017-08-04T07:05:14.959Z,942.3
2017-08-04T07:06:22.828Z,942.3
2017-08-04T07:07:31.032Z,942.3
2017-08-04T07:08:39.000Z,942.3
2017-08-04T07:09:47.091Z,942.2
2017-08-04T07:10:55.322Z,942.3
2017-08-04T07:12:03.269Z,942.3
2017-08-04T07:13:11.359Z,942.3
2017-08-04T07:14:19.625Z,942.3
2017-08-04T07:15:27.631Z,942.4
2017-08-04T07:16:35.750Z,942.3
2017-08-04T07:17:43.719Z,942.4
2017-08-04T07:18:51.981Z,942.4
2017-08-04T07:19:59.898Z,942.4
2017-08-04T07:21:07.986Z,942.4
2017-08-04T07:22:16.142Z,942.4
2017-08-04T07:23:24.288Z,942.4
2017-08-04T07:24:32.432Z,942.4
2017-08-04T07:25:40.347Z,942.4
2017-08-04T07:26:48.436Z,942.3
2017-08-04T07:27:56.580Z,942.3
2017-08-04T07:29:04.712Z,942.4
2017-08-04T07:30:12.706Z,942.4
2017-08-04T07:31:20.794Z,942.4
2017-08-04T07:32:28.886Z,942.4
2017-08-04T07:33:37.272Z,942.4
2017-08-04T07:34:45.086Z,942.4
2017-08-04T07:35:53.156Z,942.4
2017-08-04T07:37:01.262Z,942.4
2017-08-04T07:38:09.499Z,942.4
2017-08-04T07:39:17.504Z,942.4
2017-08-04T07:40:25.538Z,942.4
2017-08-04T07:41:33.627Z,942.4
2017-08-04T07:42:41.719Z,942.5
2017-08-04T07:43:49.808Z,942.5
2017-08-04T07:44:58.018Z,942.4
2017-08-04T07:46:05.988Z,942.5
2017-08-04T07:47:14.185Z,942.4
2017-08-04T07:48:22.173Z,942.4
2017-08-04T07:49:30.262Z,942.4
2017-08-04T07:50:38.404Z,942.4
2017-08-04T07:51:46.444Z,942.4
2017-08-04T07:52:54.530Z,942.4
2017-08-04T07:54:02.624Z,942.4
2017-08-04T07:55:10.831Z,942.4
2017-08-04T07:56:18.856Z,942.4
2017-08-04T07:57:26.890Z,942.4
2017-08-04T07:58:34.979Z,942.4
2017-08-04T07:59:43.068Z,942.4
2017-08-04T08:00:51.267Z,942.4
2017-08-04T08:01:59.305Z,942.4
2017-08-04T08:03:07.338Z,942.4
2017-08-04T08:04:15.429Z,942.4
2017-08-04T08:05:23.646Z,942.4
2017-08-04T08:06:31.610Z,942.4
2017-08-04T08:07:39.824Z,942.5
2017-08-04T08:08:47.793Z,942.4
2017-08-04T08:09:55.899Z,942.4
2017-08-04T08:11:04.026Z,942.4
2017-08-04T08:12:12.058Z,942.4
2017-08-04T08:13:20.267Z,942.4
2017-08-04T08:14:28.237Z,942.4
2017-08-04T08:15:36.374Z,942.4
2017-08-04T08:16:44.419Z,942.4
2017-08-04T08:17:52.509Z,942.4
2017-08-04T08:19:00.656Z,942.3
2017-08-04T08:20:08.723Z,942.3
2017-08-04T08:21:16.779Z,942.3
2017-08-04T08:22:24.868Z,942.4
2017-08-04T08:23:32.961Z,942.3
2017-08-04T08:24:41.104Z,942.4
2017-08-04T08:25:49.139Z,942.3
2017-08-04T08:26:57.347Z,942.4
2017-08-04T08:28:05.318Z,942.4
2017-08-04T08:29:13.416Z,942.4
2017-08-04T08:30:21.553Z,942.4
2017-08-04T08:31:29.587Z,942.4
2017-08-04T08:32:37.676Z,942.4
2017-08-04T08:33:45.863Z,942.4
2017-08-04T08:34:53.857Z,942.4
2017-08-04T08:36:02.064Z,942.4
2017-08-04T08:37:10.037Z,942.4
2017-08-04T08:38:18.123Z,942.4
2017-08-04T08:39:26.244Z,942.4
2017-08-04T08:40:34.304Z,942.4
2017-08-04T08:41:42.452Z,942.5
2017-08-04T08:42:50.602Z,942.5
2017-08-04T08:43:58.579Z,942.4
2017-08-04T08:45:06.664Z,942.5
2017-08-04T08:46:14.758Z,942.4
2017-08-04T08:47:22.903Z,942.4
2017-08-04T08:48:30.947Z,942.4
2017-08-04T08:49:39.025Z,942.4
2017-08-04T08:50:47.120Z,942.4
2017-08-04T08:51:55.215Z,942.4
2017-08-04T08:53:03.353Z,942.4
2017-08-04T08:54:11.389Z,942.4
2017-08-04T08:55:19.477Z,942.5
2017-08-04T08:56:27.569Z,942.4
2017-08-04T08:57:35.658Z,942.5
2017-08-04T08:58:43.869Z,942.5
2017-08-04T08:59:51.842Z,942.5
2017-08-04T09:00:59.929Z,942.5
2017-08-04T09:02:08.138Z,942.5
2017-08-04T09:03:16.112Z,942.5
2017-08-04T09:04:24.324Z,942.5
2017-08-04T09:05:32.446Z,942.5
2017-08-04T09:06:40.383Z,942.5
2017-08-04T09:07:48.488Z,942.5
2017-08-04T09:08:56.575Z,942.5
2017-08-04T09:10:04.865Z,942.5
2017-08-04T09:11:12.761Z,942.5
2017-08-04T09:12:20.849Z,942.5
2017-08-04T09:13:28.942Z,942.4
2017-08-04T09:14:37.272Z,942.5
2017-08-04T09:15:45.179Z,942.4
2017-08-04T09:16:53.212Z,942.4
2017-08-04T09:18:01.305Z,942.4
2017-08-04T09:19:09.395Z,942.4
2017-08-04T09:20:17.483Z,942.3
2017-08-04T09:21:25.632Z,942.3
2017-08-04T09:22:33.663Z,942.3
2017-08-04T09:23:41.897Z,942.3
2017-08-04T09:24:49.846Z,942.3
2017-08-04T09:25:57.934Z,942.3
2017-08-04T09:27:06.082Z,942.4
2017-08-04T09:28:14.224Z,942.4
2017-08-04T09:29:22.208Z,942.3
2017-08-04T09:30:30.361Z,942.3
2017-08-04T09:31:38.389Z,942.3
2017-08-04T09:32:46.598Z,942.3
2017-08-04T09:33:54.573Z,942.4
2017-08-04T09:35:02.656Z,942.3
2017-08-04T09:36:10.752Z,942.3
2017-08-04T09:37:18.843Z,942.3
2017-08-04T09:38:26.984Z,942.3
2017-08-04T09:39:35.049Z,942.3
2017-08-04T09:40:43.110Z,942.3
2017-08-04T09:41:51.200Z,942.3
2017-08-04T09:42:59.454Z,942.3
2017-08-04T09:44:07.435Z,942.3
2017-08-04T09:45:15.476Z,942.4
2017-08-04T09:46:23.780Z,942.3
2017-08-04T09:47:31.663Z,942.3
2017-08-04T09:48:39.745Z,942.4
2017-08-04T09:49:47.892Z,942.3
2017-08-04T09:50:55.938Z,942.3
2017-08-04T09:52:04.016Z,942.3
2017-08-04T09:53:12.107Z,942.4
2017-08-04T09:54:20.199Z,942.3
2017-08-04T09:55:28.411Z,942.4
2017-08-04T09:56:36.549Z,942.4
2017-08-04T09:57:44.471Z,942.4
2017-08-04T09:58:52.566Z,942.4
2017-08-04T10:00:00.658Z,942.4
2017-08-04T10:01:08.861Z,942.4
2017-08-04T10:02:16.952Z,942.4
2017-08-04T10:03:24.920Z,942.4
2017-08-04T10:04:33.029Z,942.4
2017-08-04T10:05:41.146Z,942.4
2017-08-04T10:06:49.270Z,942.4
2017-08-04T10:07:57.300Z,942.4
2017-08-04T10:09:05.392Z,942.4
2017-08-04T10:10:13.482Z,942.4
2017-08-04T10:11:21.570Z,942.4
2017-08-04T10:12:29.780Z,942.4
2017-08-04T10:13:37.751Z,942.4
2017-08-04T10:14:45.853Z,942.4
2017-08-04T10:15:53.932Z,942.5
2017-08-04T10:17:02.022Z,942.5
2017-08-04T10:18:10.233Z,942.5
2017-08-04T10:19:18.202Z,942.5
2017-08-04T10:20:26.292Z,942.5
2017-08-04T10:21:34.382Z,942.4
2017-08-04T10:22:42.472Z,942.4
2017-08-04T10:23:50.797Z,942.4
2017-08-04T10:24:58.652Z,942.5
2017-08-04T10:26:06.741Z,942.4
2017-08-04T10:27:14.843Z,942.4
2017-08-04T10:28:22.929Z,942.4
2017-08-04T10:29:31.141Z,942.4
2017-08-04T10:30:39.113Z,942.4
2017-08-04T10:31:47.204Z,942.4
2017-08-04T10:32:55.315Z,942.5
2017-08-04T10:34:03.458Z,942.4
2017-08-04T10:35:11.611Z,942.4
2017-08-04T10:36:19.582Z,942.4
2017-08-04T10:37:27.672Z,942.4
2017-08-04T10:38:35.821Z,942.4
2017-08-04T10:39:43.853Z,942.5
2017-08-04T10:40:51.998Z,942.4
2017-08-04T10:42:00.152Z,942.5
2017-08-04T10:43:08.121Z,942.4
2017-08-04T10:44:16.218Z,942.5
2017-08-04T10:45:24.301Z,942.4
2017-08-04T10:46:32.447Z,942.4
2017-08-04T10:47:40.481Z,942.4
2017-08-04T10:48:48.579Z,942.4
2017-08-04T10:49:56.790Z,942.4
2017-08-04T10:51:04.757Z,942.3
2017-08-04T10:52:12.903Z,942.4
2017-08-04T10:53:20.938Z,942.4
2017-08-04T10:54:29.031Z,942.4
2017-08-04T10:55:37.119Z,942.4
2017-08-04T10:56:45.279Z,942.4
2017-08-04T10:57:53.422Z,942.4
2017-08-04T10:59:01.391Z,942.3
2017-08-04T11:00:09.482Z,942.4
2017-08-04T11:01:17.722Z,942.3
2017-08-04T11:02:25.662Z,942.3
2017-08-04T11:03:33.874Z,942.3
2017-08-04T11:04:41.855Z,942.2
2017-08-04T11:05:49.995Z,942.2
2017-08-04T11:06:58.030Z,942.3
2017-08-04T11:08:06.116Z,942.2
2017-08-04T11:09:14.469Z,942.2
2017-08-04T11:10:22.298Z,942.2
2017-08-04T11:11:30.395Z,942.1
2017-08-04T11:12:38.478Z,942.1
2017-08-04T11:13:46.710Z,942.2
2017-08-04T11:14:54.715Z,942.2
2017-08-04T11:16:02.749Z,942.1
2017-08-04T11:17:10.840Z,942.2
2017-08-04T11:18:18.933Z,942.2
2017-08-04T11:19:27.030Z,942.2
2017-08-04T11:20:35.235Z,942.1
2017-08-04T11:21:43.266Z,942.1
2017-08-04T11:22:51.437Z,942.0
2017-08-04T11:23:59.468Z,942.1
2017-08-04T11:25:07.482Z,942.1
2017-08-04T11:26:15.628Z,942.1
2017-08-04T11:27:23.665Z,942.1
2017-08-04T11:28:31.916Z,942.1
2017-08-04T11:29:39.843Z,942.2
2017-08-04T11:30:47.937Z,942.1
2017-08-04T11:31:56.081Z,942.1
2017-08-04T11:33:04.192Z,942.1
2017-08-04T11:34:12.207Z,942.1
2017-08-04T11:35:20.299Z,942.1
2017-08-04T11:36:28.395Z,942.2
2017-08-04T11:37:36.600Z,942.2
2017-08-04T11:38:44.578Z,942.2
2017-08-04T11:39:52.660Z,942.2
2017-08-04T11:41:00.749Z,942.2
2017-08-04T11:42:08.896Z,942.2
2017-08-04T11:43:17.068Z,942.2
2017-08-04T11:44:25.038Z,942.2
2017-08-04T11:45:33.129Z,942.2
2017-08-04T11:46:41.416Z,942.2
2017-08-04T11:47:49.307Z,942.1
2017-08-04T11:48:57.456Z,942.2
2017-08-04T11:50:05.491Z,942.2
2017-08-04T11:51:13.686Z,942.2
2017-08-04T11:52:21.673Z,942.2
2017-08-04T11:53:29.888Z,942.2
2017-08-04T11:54:37.915Z,942.1
2017-08-04T11:55:45.946Z,942.1
2017-08-04T11:56:54.045Z,942.1
2017-08-04T11:58:02.124Z,942.2
2017-08-04T11:59:10.218Z,942.1
2017-08-04T12:00:18.375Z,942.1
2017-08-04T12:01:26.402Z,942.2
2017-08-04T12:02:34.495Z,942.2
2017-08-04T12:03:42.592Z,942.1
2017-08-04T12:04:50.775Z,942.1
2017-08-04T12:05:58.887Z,942.1
2017-08-04T12:07:06.861Z,942.1
2017-08-04T12:08:14.948Z,942.1
2017-08-04T12:09:23.295Z,942.2
2017-08-04T12:10:31.131Z,942.1
2017-08-04T12:11:39.342Z,942.2
2017-08-04T12:12:47.320Z,942.2
2017-08-04T12:13:55.599Z,942.2
2017-08-04T12:15:03.492Z,942.2
2017-08-04T12:16:11.583Z,942.2
2017-08-04T12:17:19.794Z,942.2
2017-08-04T12:18:27.855Z,942.2
2017-08-04T12:19:35.866Z,942.2
2017-08-04T12:20:43.955Z,942.1
2017-08-04T12:21:52.047Z,942.1
2017-08-04T12:23:00.349Z,942.0
2017-08-04T12:24:08.243Z,942.0
2017-08-04T12:25:16.440Z,942.0
2017-08-04T12:26:24.409Z,942.0
2017-08-04T12:27:32.541Z,942.0
2017-08-04T12:28:40.737Z,942.1
2017-08-04T12:29:48.683Z,942.0
2017-08-04T12:30:56.772Z,942.1
2017-08-04T12:32:04.864Z,942.1
2017-08-04T12:33:12.954Z,942.1
2017-08-04T12:34:21.102Z,942.1
2017-08-04T12:35:29.135Z,942.1
2017-08-04T12:36:37.229Z,942.2
2017-08-04T12:37:45.367Z,942.1
2017-08-04T12:38:53.408Z,942.1
2017-08-04T12:40:01.556Z,942.0
2017-08-04T12:41:09.906Z,942.1
2017-08-04T12:42:17.681Z,942.0
2017-08-04T12:43:25.772Z,942.0
2017-08-04T12:44:33.868Z,942.0
2017-08-04T12:45:42.261Z,942.0
2017-08-04T12:46:50.042Z,942.0
2017-08-04T12:47:58.135Z,942.0
2017-08-04T12:49:06.234Z,942.0
2017-08-04T12:50:14.323Z,942.0
2017-08-04T12:51:22.473Z,941.9
2017-08-04T12:52:30.503Z,942.0
2017-08-04T12:53:38.594Z,941.9
2017-08-04T12:54:46.686Z,941.9
2017-08-04T12:55:54.782Z,941.9
2017-08-04T12:57:02.926Z,941.9
2017-08-04T12:58:10.959Z,941.9
2017-08-04T12:59:19.075Z,941.8
2017-08-04T13:00:27.261Z,941.8
2017-08-04T13:01:35.238Z,941.9
2017-08-04T13:02:43.453Z,941.8
2017-08-04T13:03:51.420Z,941.8
2017-08-04T13:04:59.513Z,941.9
2017-08-04T13:06:07.602Z,941.9
2017-08-04T13:07:15.694Z,941.9
2017-08-04T13:08:23.962Z,941.8
2017-08-04T13:09:31.875Z,941.9
2017-08-04T13:10:39.968Z,941.9
2017-08-04T13:11:48.063Z,941.9
2017-08-04T13:12:56.270Z,941.9
2017-08-04T13:14:04.297Z,941.9
2017-08-04T13:15:12.332Z,941.9
2017-08-04T13:16:20.422Z,941.9
2017-08-04T13:17:28.516Z,941.9
2017-08-04T13:18:36.656Z,941.8
2017-08-04T13:19:44.750Z,941.9
2017-08-04T13:20:52.796Z,941.9
2017-08-04T13:22:00.888Z,941.9
2017-08-04T13:23:08.978Z,941.8
2017-08-04T13:24:17.069Z,941.8
2017-08-04T13:25:25.284Z,941.8
2017-08-04T13:26:33.358Z,941.9
2017-08-04T13:27:41.372Z,941.9
2017-08-04T13:28:49.488Z,941.9
2017-08-04T13:29:57.526Z,941.9
2017-08-04T13:31:05.735Z,941.8
2017-08-04T13:32:13.738Z,941.8
2017-08-04T13:33:21.797Z,941.8
2017-08-04T13:34:29.887Z,941.8
2017-08-04T13:35:37.978Z,941.8
2017-08-04T13:36:46.254Z,941.8
2017-08-04T13:37:54.157Z,941.8
2017-08-04T13:39:02.250Z,941.8
2017-08-04T13:40:10.340Z,941.8
2017-08-04T13:41:18.572Z,941.8
2017-08-04T13:42:26.640Z,941.8
2017-08-04T13:43:34.617Z,941.8
2017-08-04T13:44:42.780Z,941.8
2017-08-04T13:45:50.924Z,941.7
2017-08-04T13:46:58.885Z,941.8
2017-08-04T13:48:07.037Z,941.7
2017-08-04T13:49:15.065Z,941.8
2017-08-04T13:50:23.160Z,941.8
2017-08-04T13:51:31.248Z,941.7
2017-08-04T13:52:39.340Z,941.7
2017-08-04T13:53:47.549Z,941.7
2017-08-04T13:54:55.533Z,941.8
2017-08-04T13:56:03.612Z,941.7
2017-08-04T13:57:11.703Z,941.7
2017-08-04T13:58:19.794Z,941.7
2017-08-04T13:59:27.940Z,941.7
2017-08-04T14:00:36.096Z,941.7
2017-08-04T14:01:44.068Z,941.7
2017-08-04T14:02:52.161Z,941.7
2017-08-04T14:04:00.278Z,941.7
2017-08-04T14:05:08.394Z,941.7
2017-08-04T14:06:16.429Z,941.7
2017-08-04T14:07:24.520Z,941.7
2017-08-04T14:08:32.810Z,941.6
2017-08-04T14:09:40.701Z,941.6
2017-08-04T14:10:48.915Z,941.7
2017-08-04T14:11:56.886Z,941.7
2017-08-04T14:13:05.160Z,941.7
2017-08-04T14:14:13.068Z,941.7
2017-08-04T14:15:21.157Z,941.7
2017-08-04T14:16:29.302Z,941.7
2017-08-04T14:17:37.421Z,941.7
2017-08-04T14:18:45.428Z,941.7
2017-08-04T14:19:53.520Z,941.6
2017-08-04T14:21:01.609Z,941.6
2017-08-04T14:22:09.826Z,941.7
2017-08-04T14:23:17.794Z,941.7
2017-08-04T14:24:25.885Z,941.7
2017-08-04T14:25:33.972Z,941.8
2017-08-04T14:26:42.061Z,941.8
2017-08-04T14:27:50.221Z,941.7
2017-08-04T14:28:58.246Z,941.8
2017-08-04T14:30:06.337Z,941.7
2017-08-04T14:31:14.428Z,941.8
2017-08-04T14:32:22.640Z,941.8
2017-08-04T14:33:30.665Z,941.8
2017-08-04T14:34:38.698Z,941.7
2017-08-04T14:35:46.790Z,941.8
2017-08-04T14:36:54.957Z,941.8